createdAt,value
2018-02-07T00:01:04.057Z,-0.90
2018-02-07T00:03:32.890Z,-1.10
2018-02-07T00:06:01.051Z,-1.10
2018-02-07T00:08:29.133Z,-0.90
2018-02-07T00:10:57.754Z,-1.00
2018-02-07T00:13:26.607Z,-1.10
2018-02-07T00:15:54.705Z,-1.10
2018-02-07T00:18:22.778Z,-1.20
2018-02-07T00:20:50.876Z,-1.20
2018-02-07T00:23:19.701Z,-1.30
2018-02-07T00:25:47.780Z,-1.30
2018-02-07T00:28:15.845Z,-1.20
2018-02-07T00:30:43.954Z,-1.20
2018-02-07T00:33:12.025Z,-1.00
2018-02-07T00:35:40.101Z,-1.20
2018-02-07T00:38:08.169Z,-1.30
2018-02-07T00:40:36.253Z,-1.30
2018-02-07T00:43:04.325Z,-1.30
2018-02-07T00:45:33.538Z,-1.50
2018-02-07T00:48:01.602Z,-1.40
2018-02-07T00:50:30.465Z,-1.30
2018-02-07T00:52:58.558Z,-1.10
2018-02-07T00:55:26.653Z,-1.30
2018-02-07T00:57:54.705Z,-1.40
2018-02-07T01:00:22.785Z,-1.40
2018-02-07T01:02:50.848Z,-1.30
2018-02-07T01:05:18.922Z,-1.40
2018-02-07T01:07:46.997Z,-1.40
2018-02-07T01:10:15.954Z,-1.40
2018-02-07T01:12:44.554Z,-1.50
2018-02-07T01:15:12.631Z,-1.70
2018-02-07T01:17:40.694Z,-1.50
2018-02-07T01:20:08.786Z,-1.50
2018-02-07T01:22:36.855Z,-1.40
2018-02-07T01:25:05.013Z,-1.40
2018-02-07T01:27:34.209Z,-1.50
2018-02-07T01:30:04.170Z,-1.40
2018-02-07T01:32:34.141Z,-1.30
2018-02-07T01:35:02.229Z,-1.20
2018-02-07T01:37:30.301Z,-1.20
2018-02-07T01:39:58.379Z,-1.40
2018-02-07T01:42:26.449Z,-1.70
2018-02-07T01:44:54.533Z,-1.80
2018-02-07T01:47:22.597Z,-1.80
2018-02-07T01:49:50.685Z,-1.80
2018-02-07T01:52:18.746Z,-1.80
2018-02-07T01:54:46.826Z,-1.70
2018-02-07T01:57:14.881Z,-1.70
2018-02-07T01:59:42.995Z,-1.20
2018-02-07T02:02:11.065Z,-1.20
2018-02-07T02:04:39.246Z,-1.40
2018-02-07T02:07:07.441Z,-1.60
2018-02-07T02:09:35.614Z,-1.60
2018-02-07T02:12:04.823Z,-1.50
2018-02-07T02:14:32.880Z,-1.70
2018-02-07T02:17:00.989Z,-1.70
2018-02-07T02:19:29.162Z,-1.50
2018-02-07T02:21:57.231Z,-1.40
2018-02-07T02:24:25.301Z,-1.40
2018-02-07T02:26:53.465Z,-1.40
2018-02-07T02:29:21.540Z,-1.40
2018-02-07T02:31:49.610Z,-1.40
2018-02-07T02:34:17.681Z,-1.30
2018-02-07T02:36:45.770Z,-1.20
2018-02-07T02:39:13.833Z,-1.30
2018-02-07T02:41:41.929Z,-1.40
2018-02-07T02:44:10.009Z,-1.50
2018-02-07T02:46:38.178Z,-1.30
2018-02-07T02:49:06.386Z,-1.40
2018-02-07T02:51:35.466Z,-1.30
2018-02-07T02:54:03.545Z,-1.40
2018-02-07T02:56:31.725Z,-1.20
2018-02-07T02:58:59.797Z,-1.40
2018-02-07T03:01:27.868Z,-1.30
2018-02-07T03:03:55.942Z,-1.20
2018-02-07T03:06:24.011Z,-1.10
2018-02-07T03:08:52.105Z,-1.20
2018-02-07T03:11:20.197Z,-1.40
2018-02-07T03:13:48.272Z,-1.40
2018-02-07T03:16:16.537Z,-1.30
2018-02-07T03:18:44.626Z,-1.30
2018-02-07T03:21:12.697Z,-1.20
2018-02-07T03:23:40.768Z,-1.10
2018-02-07T03:26:08.949Z,-1.20
2018-02-07T03:28:37.015Z,-1.30
2018-02-07T03:31:06.058Z,-1.20
2018-02-07T03:33:36.013Z,-1.30
2018-02-07T03:36:04.105Z,-1.30
2018-02-07T03:38:32.173Z,-1.40
2018-02-07T03:41:00.248Z,-1.50
2018-02-07T03:43:28.333Z,-1.40
2018-02-07T03:45:56.514Z,-1.40
2018-02-07T03:48:24.581Z,-1.20
2018-02-07T03:50:53.089Z,-1.20
2018-02-07T03:53:21.261Z,-1.20
2018-02-07T03:55:49.438Z,-1.20
2018-02-07T03:58:17.589Z,-1.20
2018-02-07T04:00:45.678Z,-1.10
2018-02-07T04:03:13.774Z,-1.20
2018-02-07T04:05:41.846Z,-1.20
2018-02-07T04:08:10.033Z,-1.00
2018-02-07T04:10:38.611Z,-1.00
2018-02-07T04:13:06.812Z,-0.90
2018-02-07T04:15:34.977Z,-1.10
2018-02-07T04:18:03.258Z,-1.00
2018-02-07T04:20:31.325Z,-0.90
2018-02-07T04:22:59.396Z,-0.90
2018-02-07T04:25:27.469Z,-1.00
2018-02-07T04:27:55.545Z,-1.10
2018-02-07T04:30:23.729Z,-1.00
2018-02-07T04:32:51.793Z,-0.90
2018-02-07T04:35:19.881Z,-1.00
2018-02-07T04:37:48.066Z,-0.80
2018-02-07T04:40:16.140Z,-1.00
2018-02-07T04:42:44.208Z,-1.00
2018-02-07T04:45:12.273Z,-1.00
2018-02-07T04:47:40.370Z,-1.10
2018-02-07T04:50:08.458Z,-1.00
2018-02-07T04:52:38.030Z,-0.90
2018-02-07T04:55:07.230Z,-1.00
2018-02-07T04:57:35.350Z,-0.70
2018-02-07T05:00:03.411Z,-0.50
2018-02-07T05:02:31.593Z,-0.60
2018-02-07T05:04:59.653Z,-0.80
2018-02-07T05:07:27.737Z,-0.80
2018-02-07T05:09:55.814Z,-0.90
2018-02-07T05:12:23.894Z,-1.00
2018-02-07T05:14:51.965Z,-1.00
2018-02-07T05:17:20.062Z,-0.90
2018-02-07T05:19:49.645Z,-0.90
2018-02-07T05:22:17.739Z,-0.90
2018-02-07T05:24:45.910Z,-1.00
2018-02-07T05:27:13.986Z,-1.00
2018-02-07T05:29:42.165Z,-1.00
2018-02-07T05:32:10.229Z,-0.80
2018-02-07T05:34:38.298Z,-0.80
2018-02-07T05:37:06.430Z,-0.60
2018-02-07T05:39:35.300Z,-0.70
2018-02-07T05:42:03.378Z,-0.80
2018-02-07T05:44:31.451Z,-0.70
2018-02-07T05:46:59.646Z,-0.90
2018-02-07T05:49:28.453Z,-0.90
2018-02-07T05:51:57.550Z,-1.00
2018-02-07T05:54:26.391Z,-0.80
2018-02-07T05:56:54.493Z,-0.60
2018-02-07T05:59:22.565Z,-0.80
2018-02-07T06:01:50.651Z,-1.00
2018-02-07T06:04:18.741Z,-0.80
2018-02-07T06:06:47.582Z,-0.90
2018-02-07T06:09:15.662Z,-0.60
2018-02-07T06:11:43.762Z,-0.70
2018-02-07T06:14:11.855Z,-0.70
2018-02-07T06:16:40.019Z,-0.90
2018-02-07T06:19:09.084Z,-0.80
2018-02-07T06:21:38.327Z,-0.80
2018-02-07T06:24:06.394Z,-0.80
2018-02-07T06:26:34.465Z,-0.80
2018-02-07T06:29:02.534Z,-0.90
2018-02-07T06:31:30.629Z,-0.70
2018-02-07T06:33:58.822Z,-0.70
2018-02-07T06:36:26.899Z,-0.60
2018-02-07T06:38:55.108Z,-0.60
2018-02-07T06:41:23.248Z,-0.70
2018-02-07T06:43:51.342Z,-0.70
2018-02-07T06:46:19.502Z,-0.60
2018-02-07T06:48:47.573Z,-0.90
2018-02-07T06:51:15.650Z,-0.80
2018-02-07T06:53:43.716Z,-0.60
2018-02-07T06:56:11.789Z,-0.60
2018-02-07T06:58:39.891Z,-0.70
2018-02-07T07:01:08.681Z,-0.80
2018-02-07T07:03:36.849Z,-0.90
2018-02-07T07:06:04.937Z,-0.70
2018-02-07T07:08:33.005Z,-0.70
2018-02-07T07:11:01.077Z,-0.70
2018-02-07T07:13:29.152Z,-0.80
2018-02-07T07:15:58.121Z,-0.60
2018-02-07T07:18:26.194Z,-0.70
2018-02-07T07:20:54.258Z,-0.70
2018-02-07T07:23:22.328Z,-0.60
2018-02-07T07:25:50.397Z,-0.50
2018-02-07T07:28:19.367Z,-0.50
2018-02-07T07:30:47.517Z,-0.30
2018-02-07T07:33:15.612Z,-0.30
2018-02-07T07:35:43.787Z,-0.60
2018-02-07T07:38:11.965Z,-0.70
2018-02-07T07:40:40.037Z,-0.80
2018-02-07T07:43:09.241Z,-0.50
2018-02-07T07:45:37.318Z,-0.40
2018-02-07T07:48:05.413Z,-0.30
2018-02-07T07:50:33.489Z,-0.10
2018-02-07T07:53:01.565Z,-0.30
2018-02-07T07:55:29.632Z,-0.20
2018-02-07T07:57:57.723Z,-0.20
2018-02-07T08:00:25.873Z,-0.30
2018-02-07T08:02:53.961Z,-0.40
2018-02-07T08:05:22.034Z,-0.60
2018-02-07T08:07:50.622Z,-0.60
2018-02-07T08:10:18.791Z,-0.50
2018-02-07T08:12:46.938Z,-0.30
2018-02-07T08:15:15.007Z,-0.40
2018-02-07T08:17:43.078Z,-0.20
2018-02-07T08:20:11.152Z,-0.50
2018-02-07T08:22:40.281Z,-0.30
2018-02-07T08:25:10.265Z,-0.40
2018-02-07T08:27:40.229Z,-0.10
2018-02-07T08:30:09.446Z,0.10
2018-02-07T08:32:37.728Z,0.10
2018-02-07T08:35:05.818Z,0.00
2018-02-07T08:37:34.148Z,-0.10
2018-02-07T08:40:02.434Z,-0.20
2018-02-07T08:42:30.709Z,-0.40
2018-02-07T08:44:58.830Z,-0.40
2018-02-07T08:47:27.168Z,-0.40
2018-02-07T08:49:55.705Z,0.00
2018-02-07T08:52:23.874Z,-0.10
2018-02-07T08:54:51.957Z,-0.20
2018-02-07T08:57:20.021Z,-0.10
2018-02-07T08:59:48.096Z,-0.30
2018-02-07T09:02:16.173Z,-0.40
2018-02-07T09:04:44.230Z,-0.40
2018-02-07T09:07:12.332Z,-0.40
2018-02-07T09:09:40.493Z,-0.20
2018-02-07T09:12:08.717Z,-0.20
2018-02-07T09:14:37.043Z,-0.20
2018-02-07T09:17:05.140Z,-0.30
2018-02-07T09:19:33.292Z,-0.30
2018-02-07T09:22:01.380Z,-0.40
2018-02-07T09:24:29.581Z,-0.50
2018-02-07T09:26:57.653Z,-0.80
2018-02-07T09:29:25.762Z,-0.60
2018-02-07T09:31:53.910Z,-0.30
2018-02-07T09:34:22.044Z,-0.10
2018-02-07T09:36:50.121Z,0.00
2018-02-07T09:39:18.241Z,0.20
2018-02-07T09:41:46.309Z,0.20
2018-02-07T09:44:14.389Z,0.20
2018-02-07T09:46:42.532Z,0.10
2018-02-07T09:49:10.594Z,-0.10
2018-02-07T09:51:40.580Z,-0.20
2018-02-07T09:54:08.632Z,-0.20
2018-02-07T09:56:36.693Z,-0.20
2018-02-07T09:59:04.790Z,-0.10
2018-02-07T10:01:32.862Z,-0.20
2018-02-07T10:04:00.929Z,-0.20
2018-02-07T10:06:29.635Z,-0.10
2018-02-07T10:08:57.726Z,-0.40
2018-02-07T10:11:25.889Z,-0.30
2018-02-07T10:13:53.962Z,-0.20
2018-02-07T10:16:22.037Z,-0.10
2018-02-07T10:18:50.125Z,-0.10
2018-02-07T10:21:18.213Z,-0.10
2018-02-07T10:23:46.289Z,0.00
2018-02-07T10:26:14.362Z,-0.20
2018-02-07T10:28:42.522Z,-0.20
2018-02-07T10:31:11.797Z,0.00
2018-02-07T10:33:41.766Z,-0.10
2018-02-07T10:36:10.965Z,-0.20
2018-02-07T10:38:39.133Z,-0.10
2018-02-07T10:41:07.201Z,-0.20
2018-02-07T10:43:35.395Z,-0.10
2018-02-07T10:46:03.457Z,-0.10
2018-02-07T10:48:31.541Z,-0.20
2018-02-07T10:50:59.617Z,0.00
2018-02-07T10:53:27.693Z,-0.20
2018-02-07T10:55:55.757Z,-0.20
2018-02-07T10:58:23.842Z,-0.20
2018-02-07T11:00:51.897Z,-0.40
2018-02-07T11:03:19.969Z,-0.20
2018-02-07T11:05:48.077Z,0.00
2018-02-07T11:08:16.165Z,-0.10
2018-02-07T11:10:44.249Z,-0.10
2018-02-07T11:13:12.405Z,-0.20
2018-02-07T11:15:41.621Z,0.00
2018-02-07T11:18:10.690Z,-0.10
2018-02-07T11:20:38.789Z,0.00
2018-02-07T11:23:06.924Z,-0.10
2018-02-07T11:25:35.033Z,-0.10
2018-02-07T11:28:03.222Z,-0.20
2018-02-07T11:30:31.289Z,-0.20
2018-02-07T11:32:59.877Z,-0.20
2018-02-07T11:35:27.961Z,-0.10
2018-02-07T11:37:56.138Z,0.00
2018-02-07T11:40:24.217Z,0.00
2018-02-07T11:42:52.273Z,0.10
2018-02-07T11:45:20.353Z,-0.20
2018-02-07T11:47:48.406Z,0.00
2018-02-07T11:50:17.339Z,-0.20
2018-02-07T11:52:45.397Z,0.00
2018-02-07T11:55:13.478Z,0.10
2018-02-07T11:57:42.093Z,-0.10
2018-02-07T12:00:10.256Z,-0.10
2018-02-07T12:02:38.329Z,0.00
2018-02-07T12:05:06.406Z,-0.10
2018-02-07T12:07:34.484Z,-0.20
2018-02-07T12:10:02.554Z,-0.40
2018-02-07T12:12:30.653Z,-0.20
2018-02-07T12:14:58.817Z,-0.10
2018-02-07T12:17:26.881Z,-0.20
2018-02-07T12:19:55.065Z,-0.20
2018-02-07T12:22:23.137Z,-0.10
2018-02-07T12:24:51.574Z,-0.10
2018-02-07T12:27:20.405Z,0.00
2018-02-07T12:29:48.485Z,0.00
2018-02-07T12:32:16.553Z,0.10
2018-02-07T12:34:44.633Z,0.00
2018-02-07T12:37:12.691Z,0.00
2018-02-07T12:39:40.771Z,-0.20
2018-02-07T12:42:08.833Z,-0.30
2018-02-07T12:44:36.921Z,-0.20
2018-02-07T12:47:04.996Z,-0.20
2018-02-07T12:49:33.133Z,-0.30
2018-02-07T12:52:01.286Z,-0.30
2018-02-07T12:54:29.469Z,-0.40
2018-02-07T12:56:57.541Z,-0.30
2018-02-07T12:59:25.730Z,-0.50
2018-02-07T13:01:53.789Z,-0.60
2018-02-07T13:04:21.974Z,-0.70
2018-02-07T13:06:50.113Z,-0.60
2018-02-07T13:09:18.135Z,-0.60
2018-02-07T13:11:46.197Z,-0.50
2018-02-07T13:14:14.273Z,-0.60
2018-02-07T13:16:43.965Z,-0.70
2018-02-07T13:19:13.166Z,-0.60
2018-02-07T13:21:41.229Z,-0.60
2018-02-07T13:24:09.310Z,-0.70
2018-02-07T13:26:37.429Z,-0.70
2018-02-07T13:29:05.601Z,-0.80
2018-02-07T13:31:33.665Z,-0.60
2018-02-07T13:34:01.878Z,-0.50
2018-02-07T13:36:30.044Z,-0.50
2018-02-07T13:38:58.126Z,-0.40
2018-02-07T13:41:26.298Z,-0.40
2018-02-07T13:43:54.475Z,-0.30
2018-02-07T13:46:22.545Z,-0.30
2018-02-07T13:48:50.754Z,-0.50
2018-02-07T13:51:18.817Z,-0.50
2018-02-07T13:53:46.906Z,-0.40
2018-02-07T13:56:14.968Z,-0.50
2018-02-07T13:58:44.668Z,-0.40
2018-02-07T14:01:13.861Z,-0.50
2018-02-07T14:03:41.937Z,-0.40
2018-02-07T14:06:10.010Z,-0.40
2018-02-07T14:08:38.073Z,-0.40
2018-02-07T14:11:06.186Z,-0.50
2018-02-07T14:13:34.242Z,-0.40
2018-02-07T14:16:02.372Z,-0.30
2018-02-07T14:18:30.402Z,-0.30
2018-02-07T14:20:58.469Z,-0.50
2018-02-07T14:23:26.537Z,-0.30
2018-02-07T14:25:54.746Z,-0.40
2018-02-07T14:28:22.916Z,-0.30
2018-02-07T14:30:50.985Z,-0.20
2018-02-07T14:33:19.057Z,-0.30
2018-02-07T14:35:47.213Z,-0.30
2018-02-07T14:38:15.342Z,-0.20
2018-02-07T14:40:45.121Z,-0.30
2018-02-07T14:43:14.316Z,-0.30
2018-02-07T14:45:42.413Z,-0.40
2018-02-07T14:48:10.494Z,-0.30
2018-02-07T14:50:38.561Z,-0.20
2018-02-07T14:53:06.641Z,-0.40
2018-02-07T14:55:34.720Z,-0.40
2018-02-07T14:58:02.801Z,-0.30
2018-02-07T15:00:30.880Z,-0.10
2018-02-07T15:02:58.950Z,-0.20
2018-02-07T15:05:27.133Z,-0.20
2018-02-07T15:07:55.205Z,-0.10
2018-02-07T15:10:23.278Z,-0.10
2018-02-07T15:12:51.340Z,0.10
2018-02-07T15:15:19.845Z,0.00
2018-02-07T15:17:48.028Z,0.10
2018-02-07T15:20:16.093Z,0.20
2018-02-07T15:22:44.934Z,0.10
2018-02-07T15:25:14.889Z,0.10
2018-02-07T15:27:42.951Z,0.20
2018-02-07T15:30:11.023Z,-0.10
2018-02-07T15:32:39.138Z,0.00
2018-02-07T15:35:07.213Z,0.00
2018-02-07T15:37:35.278Z,0.10
2018-02-07T15:40:03.358Z,0.00
2018-02-07T15:42:32.224Z,0.00
2018-02-07T15:45:00.340Z,0.00
2018-02-07T15:47:28.408Z,0.00
2018-02-07T15:49:56.493Z,0.00
2018-02-07T15:52:24.578Z,-0.10
2018-02-07T15:54:52.653Z,-0.10
2018-02-07T15:57:20.730Z,-0.20
2018-02-07T15:59:48.908Z,-0.20
2018-02-07T16:02:17.077Z,-0.30
2018-02-07T16:04:45.561Z,-0.30
2018-02-07T16:07:13.633Z,-0.20
2018-02-07T16:09:41.817Z,-0.20
2018-02-07T16:12:09.883Z,-0.30
2018-02-07T16:14:37.954Z,-0.20
2018-02-07T16:17:06.020Z,-0.30
2018-02-07T16:19:34.131Z,-0.40
2018-02-07T16:22:02.330Z,-0.40
2018-02-07T16:24:30.443Z,-0.30
2018-02-07T16:26:58.557Z,-0.40
2018-02-07T16:29:26.632Z,-0.30
2018-02-07T16:31:55.230Z,-0.30
2018-02-07T16:34:23.289Z,-0.20
2018-02-07T16:36:51.382Z,-0.10
2018-02-07T16:39:19.449Z,-0.30
2018-02-07T16:41:47.529Z,-0.40
2018-02-07T16:44:16.034Z,-0.60
2018-02-07T16:46:44.109Z,-0.50
2018-02-07T16:49:12.995Z,-0.50
2018-02-07T16:51:41.073Z,-0.50
2018-02-07T16:54:09.133Z,-0.60
2018-02-07T16:56:37.322Z,-0.50
2018-02-07T16:59:05.386Z,-0.50
2018-02-07T17:01:33.459Z,-0.70
2018-02-07T17:04:01.525Z,-0.60
2018-02-07T17:06:29.610Z,-0.50
2018-02-07T17:08:57.690Z,-0.40
2018-02-07T17:11:25.874Z,-0.50
2018-02-07T17:13:54.071Z,-0.30
2018-02-07T17:16:22.141Z,-0.40
2018-02-07T17:18:50.213Z,-0.40
2018-02-07T17:21:18.309Z,-0.40
2018-02-07T17:23:46.586Z,-0.30
2018-02-07T17:26:14.657Z,-0.20
2018-02-07T17:28:44.249Z,-0.20
2018-02-07T17:31:12.437Z,-0.10
2018-02-07T17:33:40.514Z,-0.10
2018-02-07T17:36:08.697Z,-0.10
2018-02-07T17:38:38.273Z,-0.20
2018-02-07T17:41:06.381Z,-0.30
2018-02-07T17:43:34.441Z,-0.30
2018-02-07T17:46:02.530Z,-0.30
2018-02-07T17:48:30.710Z,-0.30
2018-02-07T17:50:58.812Z,-0.20
2018-02-07T17:53:27.644Z,-0.30
2018-02-07T17:55:55.718Z,-0.30
2018-02-07T17:58:23.793Z,-0.20
2018-02-07T18:00:51.866Z,-0.10
2018-02-07T18:03:19.945Z,0.00
2018-02-07T18:05:48.037Z,-0.20
2018-02-07T18:08:17.230Z,-0.10
2018-02-07T18:10:45.343Z,-0.30
2018-02-07T18:13:13.422Z,-0.30
2018-02-07T18:15:41.594Z,-0.30
2018-02-07T18:18:09.661Z,-0.40
2018-02-07T18:20:37.738Z,-0.30
2018-02-07T18:23:05.818Z,-0.30
2018-02-07T18:25:33.897Z,-0.20
2018-02-07T18:28:02.082Z,-0.40
2018-02-07T18:30:30.185Z,-0.40
2018-02-07T18:32:58.221Z,-0.30
2018-02-07T18:35:26.293Z,-0.30
2018-02-07T18:37:54.369Z,-0.40
2018-02-07T18:40:22.449Z,-0.40
2018-02-07T18:42:50.521Z,-0.40
2018-02-07T18:45:18.605Z,-0.40
2018-02-07T18:47:48.564Z,-0.30
2018-02-07T18:50:18.527Z,-0.40
2018-02-07T18:52:47.722Z,-0.30
2018-02-07T18:55:16.642Z,-0.30
2018-02-07T18:57:44.730Z,-0.40
2018-02-07T19:00:12.793Z,-0.10
2018-02-07T19:02:40.973Z,-0.10
2018-02-07T19:05:09.057Z,-0.10
2018-02-07T19:07:37.182Z,-0.20
2018-02-07T19:10:05.306Z,-0.20
2018-02-07T19:12:33.497Z,-0.40
2018-02-07T19:15:01.554Z,-0.20
2018-02-07T19:17:29.744Z,-0.30
2018-02-07T19:19:57.921Z,-0.30
2018-02-07T19:22:26.197Z,-0.30
2018-02-07T19:24:54.265Z,-0.10
2018-02-07T19:27:22.352Z,-0.30
2018-02-07T19:29:50.413Z,-0.20
2018-02-07T19:32:18.498Z,-0.10
2018-02-07T19:34:46.681Z,-0.10
2018-02-07T19:37:14.754Z,0.00
2018-02-07T19:39:42.834Z,-0.20
2018-02-07T19:42:10.905Z,0.00
2018-02-07T19:44:39.080Z,-0.20
2018-02-07T19:47:07.170Z,0.00
2018-02-07T19:49:35.234Z,-0.10
2018-02-07T19:52:03.310Z,0.00
2018-02-07T19:54:31.377Z,-0.10
2018-02-07T19:56:59.473Z,-0.20
2018-02-07T19:59:27.563Z,-0.10
2018-02-07T20:01:55.731Z,-0.30
2018-02-07T20:04:23.910Z,0.00
2018-02-07T20:06:52.089Z,0.00
2018-02-07T20:09:20.153Z,-0.10
2018-02-07T20:11:49.261Z,-0.10
2018-02-07T20:14:18.557Z,0.00
2018-02-07T20:16:46.649Z,-0.20
2018-02-07T20:19:14.718Z,-0.10
2018-02-07T20:21:42.893Z,-0.10
2018-02-07T20:24:10.986Z,-0.10
2018-02-07T20:26:39.157Z,-0.20
2018-02-07T20:29:07.221Z,0.00
2018-02-07T20:31:35.302Z,0.10
2018-02-07T20:34:03.385Z,0.00
2018-02-07T20:36:31.447Z,0.00
2018-02-07T20:38:59.529Z,-0.30
2018-02-07T20:41:29.912Z,-0.20
2018-02-07T20:43:58.745Z,-0.10
2018-02-07T20:46:26.829Z,-0.10
2018-02-07T20:48:54.902Z,-0.20
2018-02-07T20:51:22.981Z,-0.30
2018-02-07T20:53:51.045Z,-0.30
2018-02-07T20:56:19.121Z,-0.20
2018-02-07T20:58:47.194Z,-0.20
2018-02-07T21:01:15.265Z,-0.20
2018-02-07T21:03:43.338Z,-0.30
2018-02-07T21:06:11.447Z,-0.20
2018-02-07T21:08:39.510Z,-0.20
2018-02-07T21:11:07.597Z,-0.20
2018-02-07T21:13:35.770Z,-0.30
2018-02-07T21:16:03.964Z,-0.20
2018-02-07T21:18:32.130Z,-0.10
2018-02-07T21:21:00.203Z,-0.30
2018-02-07T21:23:28.281Z,-0.30
2018-02-07T21:25:56.348Z,-0.30
2018-02-07T21:28:24.533Z,-0.20
2018-02-07T21:30:52.713Z,-0.30
2018-02-07T21:33:20.798Z,-0.30
2018-02-07T21:35:49.874Z,-0.40
2018-02-07T21:38:19.093Z,-0.30
2018-02-07T21:40:47.153Z,-0.20
2018-02-07T21:43:15.346Z,-0.30
2018-02-07T21:45:43.417Z,-0.30
2018-02-07T21:48:11.521Z,-0.50
2018-02-07T21:50:39.584Z,-0.40
2018-02-07T21:53:07.758Z,-0.40
2018-02-07T21:55:35.825Z,-0.60
2018-02-07T21:58:06.769Z,-0.60
2018-02-07T22:00:34.837Z,-0.20
2018-02-07T22:03:02.989Z,-0.30
2018-02-07T22:05:31.009Z,-0.50
2018-02-07T22:07:59.185Z,-0.40
2018-02-07T22:10:27.274Z,-0.40
2018-02-07T22:12:55.347Z,-0.50
2018-02-07T22:15:23.418Z,-0.50
2018-02-07T22:17:51.494Z,-0.70
2018-02-07T22:20:20.365Z,-0.70
2018-02-07T22:22:49.573Z,-0.80
2018-02-07T22:25:17.657Z,-0.60
2018-02-07T22:27:45.729Z,-0.80
2018-02-07T22:30:13.797Z,-0.60
2018-02-07T22:32:41.877Z,-0.70
2018-02-07T22:35:09.957Z,-0.50
2018-02-07T22:37:38.270Z,-0.70
2018-02-07T22:40:06.425Z,-0.60
2018-02-07T22:42:34.609Z,-0.60
2018-02-07T22:45:02.797Z,-0.70
2018-02-07T22:47:30.865Z,-0.70
2018-02-07T22:49:58.930Z,-0.70
2018-02-07T22:52:27.112Z,-0.80
2018-02-07T22:54:55.295Z,-0.80
2018-02-07T22:57:23.382Z,-0.80
2018-02-07T22:59:51.545Z,-0.80
2018-02-07T23:02:20.729Z,-0.80
2018-02-07T23:04:51.369Z,-0.80
2018-02-07T23:07:20.769Z,-0.80
2018-02-07T23:09:49.994Z,-0.60
2018-02-07T23:12:18.062Z,-0.70
2018-02-07T23:14:46.137Z,-0.60
2018-02-07T23:17:14.213Z,-0.70
2018-02-07T23:19:42.277Z,-0.70
2018-02-07T23:22:10.366Z,-0.60
2018-02-07T23:24:38.451Z,-0.50
2018-02-07T23:27:06.636Z,-0.40
2018-02-07T23:29:34.704Z,-0.50
2018-02-07T23:32:02.783Z,-0.50
2018-02-07T23:34:30.841Z,-0.70
2018-02-07T23:36:58.918Z,-0.80
2018-02-07T23:39:27.017Z,-0.70
2018-02-07T23:41:55.097Z,-0.60
2018-02-07T23:44:23.182Z,-0.60
2018-02-07T23:46:52.031Z,-0.70
2018-02-07T23:49:21.393Z,-0.60
2018-02-07T23:51:51.081Z,-0.70
2018-02-07T23:54:20.281Z,-0.70
2018-02-07T23:56:48.357Z,-0.70
2018-02-07T23:59:16.434Z,-0.80
